Time;durP1;ratioP1;P1;durP2;ratioP2;P2;SDS_P1;SDS_P2;PMS_P1;PMS_P2;Temp;Humidity;BMP_temperature;BMP_pressure;BME280_temperature;BME280_humidity;BME280_pressure;Samples;Min_cycle;Max_cycle;Signal;HPM_P1;HPM_P2
2021/10/10 00:01:49;;;;;;;25.35;14.43;;;7.40;76.00;;;;;;5014035;28;20116;-80
2021/10/10 00:04:15;;;;;;;22.67;12.48;;;7.40;75.80;;;;;;5013723;28;20177;-80
2021/10/10 00:06:40;;;;;;;21.38;11.18;;;7.40;75.60;;;;;;5012460;28;20034;-80
2021/10/10 00:09:06;;;;;;;17.52;12.10;;;7.30;75.40;;;;;;5013606;28;20363;-80
2021/10/10 00:11:32;;;;;;;23.05;12.80;;;7.30;75.20;;;;;;5013604;28;20055;-80
2021/10/10 00:13:57;;;;;;;21.45;13.30;;;7.30;75.40;;;;;;5013709;28;20026;-80
2021/10/10 00:16:23;;;;;;;20.92;12.75;;;7.30;75.20;;;;;;5013445;28;20065;-80
2021/10/10 00:18:49;;;;;;;20.60;13.23;;;7.30;75.20;;;;;;5012245;28;20029;-81
2021/10/10 00:21:15;;;;;;;26.63;14.23;;;7.30;75.50;;;;;;5013556;28;20068;-81
2021/10/10 00:23:41;;;;;;;25.17;15.45;;;7.30;75.60;;;;;;5013495;28;20042;-81
2021/10/10 00:26:07;;;;;;;25.77;15.35;;;7.20;75.80;;;;;;5013582;28;20057;-81
2021/10/10 00:28:32;;;;;;;26.05;14.35;;;7.20;76.00;;;;;;5013376;28;20030;-81
2021/10/10 00:30:58;;;;;;;22.45;13.82;;;7.10;75.80;;;;;;4995709;28;20097;-81
2021/10/10 00:33:27;;;;;;;19.95;12.38;;;7.10;76.00;;;;;;5013422;28;20052;-81
2021/10/10 00:35:53;;;;;;;20.45;13.05;;;7.10;76.00;;;;;;5012958;28;20478;-81
2021/10/10 00:38:18;;;;;;;18.17;12.13;;;7.00;75.70;;;;;;5013236;28;20030;-80
2021/10/10 00:40:44;;;;;;;20.30;12.02;;;7.00;75.40;;;;;;5013250;28;20065;-81
2021/10/10 00:43:10;;;;;;;21.00;12.32;;;6.90;74.90;;;;;;5013565;28;20026;-81
2021/10/10 00:45:35;;;;;;;19.13;12.15;;;7.00;75.00;;;;;;5013171;28;20038;-80
2021/10/10 00:48:01;;;;;;;20.77;12.40;;;6.90;74.80;;;;;;5013276;28;20025;-83
2021/10/10 00:50:29;;;;;;;17.25;11.48;;;6.80;74.90;;;;;;5013139;28;20509;-82
2021/10/10 00:52:54;;;;;;;18.95;10.77;;;6.80;75.10;;;;;;5013263;28;20073;-82
2021/10/10 00:55:21;;;;;;;20.40;12.90;;;6.70;75.40;;;;;;5013078;28;20485;-81
2021/10/10 00:57:50;;;;;;;20.90;12.27;;;6.70;75.70;;;;;;5013364;28;20041;-81
2021/10/10 01:00:17;;;;;;;21.15;11.25;;;6.70;75.80;;;;;;5013110;28;20065;-81
2021/10/10 01:02:43;;;;;;;20.25;12.05;;;6.60;75.80;;;;;;5013192;28;20108;-81
2021/10/10 01:05:11;;;;;;;20.58;12.15;;;6.60;76.20;;;;;;5013236;28;20083;-82
2021/10/10 01:07:37;;;;;;;21.27;11.80;;;6.50;76.30;;;;;;5013070;28;20473;-80
2021/10/10 01:10:04;;;;;;;17.33;11.60;;;6.50;76.40;;;;;;5013093;28;20125;-80
2021/10/10 01:12:31;;;;;;;19.80;11.38;;;6.50;76.60;;;;;;5012760;28;20036;-81
2021/10/10 01:14:56;;;;;;;22.50;11.95;;;6.50;76.50;;;;;;4995184;28;20046;-82
2021/10/10 01:17:25;;;;;;;19.45;11.50;;;6.50;76.30;;;;;;5012841;28;20046;-79
2021/10/10 01:19:52;;;;;;;19.13;11.50;;;6.50;76.10;;;;;;5013053;28;20034;-81
2021/10/10 01:22:18;;;;;;;22.83;11.55;;;6.50;76.20;;;;;;5012490;28;20022;-81
2021/10/10 01:24:44;;;;;;;18.70;11.82;;;6.50;76.80;;;;;;5012905;28;20103;-80
2021/10/10 01:27:09;;;;;;;21.77;12.48;;;6.40;76.80;;;;;;5012969;28;20512;-79
2021/10/10 01:29:35;;;;;;;21.85;12.30;;;6.40;76.80;;;;;;5012641;28;20022;-80
2021/10/10 01:32:00;;;;;;;20.55;11.52;;;6.40;76.90;;;;;;5012717;28;20478;-79
2021/10/10 01:34:26;;;;;;;15.73;10.27;;;6.40;76.80;;;;;;5012680;28;20026;-80
2021/10/10 01:36:52;;;;;;;16.83;10.25;;;6.30;76.80;;;;;;5012570;28;20022;-79
2021/10/10 01:39:17;;;;;;;22.65;11.52;;;6.40;76.50;;;;;;5012667;28;20029;-79
2021/10/10 01:41:43;;;;;;;16.90;11.38;;;6.40;76.50;;;;;;5012628;28;20022;-79
2021/10/10 01:44:13;;;;;;;19.58;11.25;;;6.40;76.30;;;;;;5012883;28;20022;-79
2021/10/10 01:46:39;;;;;;;16.33;10.07;;;6.40;76.10;;;;;;5023267;28;20026;-76
2021/10/10 01:49:05;;;;;;;16.20;10.50;;;6.30;76.30;;;;;;5022196;28;20049;-79
2021/10/10 01:51:30;;;;;;;18.50;10.65;;;6.30;76.40;;;;;;5012453;28;20026;-78
2021/10/10 01:53:57;;;;;;;18.88;11.63;;;6.20;75.90;;;;;;5012586;28;20030;-78
2021/10/10 01:56:23;;;;;;;17.08;10.88;;;6.20;75.90;;;;;;5012383;28;20041;-79
2021/10/10 01:58:48;;;;;;;16.02;10.10;;;6.10;76.10;;;;;;4994917;28;20429;-80
2021/10/10 02:01:14;;;;;;;20.48;11.55;;;6.10;76.20;;;;;;5012462;28;20049;-79
2021/10/10 02:03:39;;;;;;;21.73;11.07;;;6.10;76.40;;;;;;5012390;28;20053;-81
2021/10/10 02:06:05;;;;;;;20.42;11.88;;;6.00;76.30;;;;;;5012457;28;20032;-79
2021/10/10 02:08:31;;;;;;;17.45;11.68;;;6.00;76.20;;;;;;5012486;28;20036;-81
2021/10/10 02:10:56;;;;;;;20.25;12.02;;;5.90;76.50;;;;;;5012446;28;20478;-82
2021/10/10 02:13:22;;;;;;;17.80;11.07;;;5.90;76.80;;;;;;5012299;28;20064;-82
2021/10/10 02:15:47;;;;;;;19.08;10.90;;;5.80;76.80;;;;;;5010857;28;20044;-81
2021/10/10 02:18:13;;;;;;;20.15;10.32;;;5.80;77.10;;;;;;5012590;28;20105;-80
2021/10/10 02:20:39;;;;;;;18.60;11.02;;;5.80;77.00;;;;;;5012425;28;20026;-82
2021/10/10 02:23:05;;;;;;;16.52;10.80;;;5.80;77.20;;;;;;5012427;28;20084;-82
2021/10/10 02:25:31;;;;;;;19.42;11.38;;;5.80;77.00;;;;;;5012189;28;20101;-82
2021/10/10 02:27:57;;;;;;;15.32;10.30;;;5.80;77.00;;;;;;5012171;28;20062;-82
2021/10/10 02:30:22;;;;;;;19.40;10.00;;;5.70;76.90;;;;;;5012158;28;20054;-81
2021/10/10 02:32:48;;;;;;;16.95;9.55;;;5.70;77.00;;;;;;5013142;28;20215;-81
2021/10/10 02:35:13;;;;;;;15.10;9.77;;;5.70;76.90;;;;;;5015565;28;20498;-81
2021/10/10 02:37:39;;;;;;;17.83;9.30;;;5.70;76.60;;;;;;5015569;28;20410;-80
2021/10/10 02:40:06;;;;;;;19.48;10.82;;;5.60;76.50;;;;;;5015431;28;20123;-79
2021/10/10 02:42:32;;;;;;;19.02;9.82;;;5.70;76.70;;;;;;5015423;28;20487;-80
2021/10/10 02:44:58;;;;;;;14.80;10.02;;;5.70;76.70;;;;;;5014026;28;20108;-81
2021/10/10 02:47:23;;;;;;;17.15;9.73;;;5.60;76.30;;;;;;5015391;28;20076;-80
2021/10/10 02:49:49;;;;;;;20.40;9.77;;;5.60;76.30;;;;;;5015369;28;20029;-82
2021/10/10 02:52:16;;;;;;;15.15;9.05;;;5.60;76.40;;;;;;5015377;28;20092;-81
2021/10/10 02:54:42;;;;;;;15.52;8.55;;;5.60;76.50;;;;;;5015092;28;20114;-80
2021/10/10 02:57:08;;;;;;;13.40;9.10;;;5.70;76.50;;;;;;5015182;28;20447;-79
2021/10/10 02:59:33;;;;;;;15.88;8.98;;;5.60;76.30;;;;;;5015178;28;20037;-79
2021/10/10 03:01:59;;;;;;;18.00;10.50;;;5.70;76.30;;;;;;5013931;28;20030;-79
2021/10/10 03:04:24;;;;;;;14.80;9.23;;;5.70;76.10;;;;;;5015017;28;20479;-80
2021/10/10 03:06:50;;;;;;;16.40;9.07;;;5.70;75.80;;;;;;5015088;28;20025;-80
2021/10/10 03:09:15;;;;;;;17.23;10.32;;;5.60;75.30;;;;;;5015031;28;20502;-79
2021/10/10 03:11:41;;;;;;;13.05;8.70;;;5.60;75.40;;;;;;5015000;28;20097;-80
2021/10/10 03:14:07;;;;;;;19.25;9.00;;;5.50;75.60;;;;;;5014893;28;20056;-80
2021/10/10 03:16:32;;;;;;;17.98;9.00;;;5.50;75.80;;;;;;5014550;28;20536;-79
2021/10/10 03:18:58;;;;;;;13.70;8.60;;;5.50;75.90;;;;;;5014905;28;20026;-79
2021/10/10 03:21:23;;;;;;;16.77;8.93;;;5.40;76.10;;;;;;5014784;28;20024;-78
2021/10/10 03:23:49;;;;;;;15.48;9.73;;;5.40;76.40;;;;;;5014778;28;20105;-80
2021/10/10 03:26:15;;;;;;;17.70;9.35;;;5.40;76.50;;;;;;5014676;28;20048;-78
2021/10/10 03:28:40;;;;;;;15.45;9.32;;;5.30;76.30;;;;;;5014625;28;20497;-78
2021/10/10 03:31:06;;;;;;;16.08;9.25;;;5.30;76.60;;;;;;5014524;28;20030;-79
2021/10/10 03:33:32;;;;;;;16.20;9.52;;;5.30;76.70;;;;;;5014589;28;20057;-79
2021/10/10 03:35:57;;;;;;;17.90;9.95;;;5.30;76.80;;;;;;5014588;28;20069;-79
2021/10/10 03:38:23;;;;;;;18.60;9.60;;;5.30;76.90;;;;;;5014529;28;20026;-78
2021/10/10 03:40:49;;;;;;;20.55;10.45;;;5.30;76.50;;;;;;5014450;28;20038;-78
2021/10/10 03:43:14;;;;;;;16.08;9.55;;;5.30;76.70;;;;;;5013811;28;20018;-79
2021/10/10 03:45:40;;;;;;;13.60;8.48;;;5.20;76.60;;;;;;5014376;28;20030;-79
2021/10/10 03:48:05;;;;;;;14.52;8.57;;;5.30;76.50;;;;;;5012893;28;20029;-78
2021/10/10 03:50:31;;;;;;;14.10;8.23;;;5.20;76.00;;;;;;5014150;28;20105;-77
2021/10/10 03:52:56;;;;;;;15.50;8.88;;;5.30;75.70;;;;;;5014118;28;20034;-77
2021/10/10 03:55:38;;;;;;;14.70;9.05;;;5.20;75.50;;;;;;5013698;28;20069;-79
2021/10/10 03:58:04;;;;;;;15.73;9.00;;;5.10;75.60;;;;;;5014190;28;20033;-77
2021/10/10 04:00:32;;;;;;;20.00;10.45;;;5.10;75.50;;;;;;5014103;28;20489;-78
2021/10/10 04:03:00;;;;;;;16.90;9.60;;;5.00;75.10;;;;;;5020719;28;20033;-79
2021/10/10 04:07:57;;;;;;;14.85;9.70;;;4.90;75.70;;;;;;5014222;28;20022;-79
2021/10/10 04:10:23;;;;;;;15.88;8.90;;;4.90;76.20;;;;;;5013866;28;20034;-78
2021/10/10 04:12:50;;;;;;;17.33;9.25;;;5.00;76.30;;;;;;5013920;28;20335;-79
2021/10/10 04:15:16;;;;;;;14.48;8.68;;;4.90;76.30;;;;;;5013666;28;20119;-78
2021/10/10 04:17:42;;;;;;;15.57;9.02;;;4.90;76.40;;;;;;5013429;28;20097;-78
2021/10/10 04:20:10;;;;;;;13.90;9.13;;;4.90;76.50;;;;;;5013787;28;20470;-79
2021/10/10 04:22:36;;;;;;;18.40;9.32;;;4.90;76.50;;;;;;5013121;28;20461;-79
2021/10/10 04:25:03;;;;;;;12.75;8.57;;;4.80;76.20;;;;;;5013634;28;20105;-78
2021/10/10 04:27:28;;;;;;;14.25;8.88;;;4.80;76.30;;;;;;5013516;28;20053;-76
2021/10/10 04:29:54;;;;;;;14.55;8.63;;;4.80;76.20;;;;;;5013533;28;20104;-77
2021/10/10 04:32:19;;;;;;;14.18;8.65;;;4.80;76.10;;;;;;5013522;28;20470;-78
2021/10/10 04:34:45;;;;;;;12.70;8.95;;;4.80;76.00;;;;;;5013427;28;20443;-78
2021/10/10 04:37:10;;;;;;;15.05;8.98;;;4.80;76.20;;;;;;5013501;28;20049;-78
2021/10/10 04:39:36;;;;;;;18.77;10.70;;;4.80;76.40;;;;;;5013309;28;20030;-78
2021/10/10 04:42:02;;;;;;;20.73;10.90;;;4.80;76.40;;;;;;5013279;28;20503;-78
2021/10/10 04:44:27;;;;;;;20.70;11.95;;;4.80;76.40;;;;;;5013293;28;20022;-77
2021/10/10 04:46:53;;;;;;;19.73;12.45;;;4.80;76.30;;;;;;5013318;28;20029;-78
2021/10/10 04:49:18;;;;;;;20.73;13.25;;;4.80;76.20;;;;;;5013115;28;20018;-78
2021/10/10 04:51:44;;;;;;;20.92;13.63;;;4.90;76.10;;;;;;5011967;28;20034;-77
2021/10/10 04:54:09;;;;;;;16.20;11.85;;;4.90;76.20;;;;;;5013240;28;20022;-77
2021/10/10 04:56:35;;;;;;;19.20;11.88;;;4.90;76.20;;;;;;5012260;28;20042;-77
2021/10/10 04:59:01;;;;;;;17.55;11.43;;;4.90;76.60;;;;;;5013141;28;20072;-78
2021/10/10 05:01:26;;;;;;;15.48;10.30;;;4.90;76.10;;;;;;5013075;28;20030;-79
2021/10/10 05:03:52;;;;;;;17.98;9.32;;;4.90;76.00;;;;;;4995466;28;20045;-77
2021/10/10 05:06:17;;;;;;;14.35;8.73;;;4.90;76.20;;;;;;5012971;28;20033;-77
2021/10/10 05:08:43;;;;;;;15.13;9.13;;;4.90;76.20;;;;;;5012946;28;20101;-77
2021/10/10 05:11:08;;;;;;;14.40;8.75;;;4.90;76.10;;;;;;5013147;28;20026;-79
2021/10/10 05:13:37;;;;;;;14.45;9.25;;;4.80;76.20;;;;;;5012866;28;20030;-79
2021/10/10 05:16:04;;;;;;;15.95;8.85;;;4.80;76.20;;;;;;5012553;28;20140;-79
2021/10/10 05:18:30;;;;;;;17.30;8.38;;;4.80;75.80;;;;;;5012838;28;20045;-78
2021/10/10 05:20:56;;;;;;;15.60;9.23;;;4.80;75.90;;;;;;5012840;28;20025;-78
2021/10/10 05:23:21;;;;;;;17.55;10.48;;;4.80;76.20;;;;;;5012756;28;20497;-79
2021/10/10 05:25:47;;;;;;;14.63;9.25;;;4.80;76.60;;;;;;5012816;28;20022;-79
2021/10/10 05:28:13;;;;;;;13.98;9.13;;;4.80;76.40;;;;;;5012843;28;20026;-79
2021/10/10 05:30:38;;;;;;;13.13;8.68;;;4.80;77.10;;;;;;5012840;28;20030;-78
2021/10/10 05:33:04;;;;;;;16.23;9.48;;;4.70;77.10;;;;;;5013145;28;20065;-78
2021/10/10 05:35:29;;;;;;;18.20;10.82;;;4.80;77.20;;;;;;5013405;28;20062;-79
2021/10/10 05:37:55;;;;;;;19.63;11.52;;;4.70;77.50;;;;;;5012653;28;20450;-78
2021/10/10 05:40:21;;;;;;;21.67;12.25;;;4.70;77.80;;;;;;5012710;28;20033;-79
2021/10/10 05:42:46;;;;;;;22.30;12.77;;;4.70;77.80;;;;;;5011441;28;20033;-79
2021/10/10 05:45:12;;;;;;;17.55;11.15;;;4.70;77.90;;;;;;5011353;28;20068;-79
2021/10/10 05:47:37;;;;;;;26.60;13.10;;;4.70;78.20;;;;;;5012516;28;20071;-80
2021/10/10 05:50:04;;;;;;;27.50;14.55;;;4.70;78.10;;;;;;5012475;28;20022;-82
2021/10/10 05:52:30;;;;;;;24.60;13.27;;;4.70;78.60;;;;;;5012532;28;20426;-82
2021/10/10 05:54:56;;;;;;;24.50;12.90;;;4.60;78.90;;;;;;5012509;28;20033;-81
2021/10/10 05:57:26;;;;;;;27.08;13.45;;;4.70;79.10;;;;;;5012512;28;20118;-80
2021/10/10 05:59:55;;;;;;;25.35;12.80;;;4.60;79.60;;;;;;5012548;28;20485;-79
2021/10/10 06:02:21;;;;;;;22.63;11.85;;;4.60;79.50;;;;;;5012281;28;20489;-82
2021/10/10 06:04:47;;;;;;;22.90;12.35;;;4.70;79.40;;;;;;5012415;28;20116;-81
2021/10/10 06:07:12;;;;;;;23.48;13.85;;;4.80;79.00;;;;;;5013909;28;20069;-82
2021/10/10 06:09:38;;;;;;;26.52;13.00;;;4.80;78.40;;;;;;5016146;28;20018;-82
2021/10/10 06:12:03;;;;;;;23.85;13.07;;;4.80;77.90;;;;;;5016187;28;20084;-83
2021/10/10 06:14:30;;;;;;;21.13;10.43;;;4.80;77.60;;;;;;4998262;28;20021;-82
2021/10/10 06:16:56;;;;;;;23.45;10.27;;;4.80;77.40;;;;;;5015952;28;20038;-82
2021/10/10 06:19:21;;;;;;;20.65;10.90;;;4.90;77.50;;;;;;5016024;28;20096;-82
2021/10/10 06:21:47;;;;;;;18.23;10.70;;;4.90;77.20;;;;;;5015889;28;20089;-82
2021/10/10 06:24:12;;;;;;;24.90;12.77;;;4.90;77.10;;;;;;5016053;28;20053;-86
2021/10/10 06:26:38;;;;;;;25.27;13.45;;;5.00;76.70;;;;;;5015939;28;20046;-83
2021/10/10 06:29:03;;;;;;;22.85;12.77;;;5.10;76.40;;;;;;5015983;28;20029;-82
2021/10/10 06:31:29;;;;;;;22.15;12.65;;;5.10;76.20;;;;;;5015828;28;20026;-83
2021/10/10 06:33:55;;;;;;;21.63;12.13;;;5.20;76.10;;;;;;5015966;28;20466;-83
2021/10/10 06:36:20;;;;;;;22.40;10.82;;;5.20;75.80;;;;;;5015710;28;20119;-83
2021/10/10 06:38:47;;;;;;;20.63;12.35;;;5.30;75.90;;;;;;5015823;28;20496;-84
2021/10/10 06:41:13;;;;;;;19.23;10.93;;;5.20;76.80;;;;;;5015778;28;20475;-80
2021/10/10 06:43:39;;;;;;;31.15;12.80;;;5.20;77.00;;;;;;5015757;28;20096;-83
2021/10/10 06:46:04;;;;;;;21.38;14.27;;;5.20;78.40;;;;;;5015621;28;20074;-81
2021/10/10 06:48:30;;;;;;;30.75;15.38;;;5.20;79.10;;;;;;5015745;28;20017;-81
2021/10/10 06:50:55;;;;;;;31.88;13.95;;;5.30;79.70;;;;;;5014963;28;20426;-81
2021/10/10 06:53:21;;;;;;;23.95;13.77;;;5.30;79.40;;;;;;5015192;28;20021;-82
2021/10/10 06:55:46;;;;;;;27.00;14.68;;;5.30;79.20;;;;;;5015384;28;20121;-83
2021/10/10 06:58:12;;;;;;;23.83;14.80;;;5.30;79.70;;;;;;5015506;28;20471;-82
2021/10/10 07:00:38;;;;;;;25.40;15.85;;;5.40;79.70;;;;;;4997811;28;20033;-81
2021/10/10 07:03:03;;;;;;;26.40;14.90;;;5.50;80.70;;;;;;5015410;28;20030;-83
2021/10/10 07:05:29;;;;;;;32.40;15.60;;;5.60;80.40;;;;;;5013800;28;20655;-84
2021/10/10 07:07:55;;;;;;;28.48;13.98;;;5.70;80.60;;;;;;5015387;28;20026;-83
2021/10/10 07:10:20;;;;;;;18.92;12.55;;;5.80;80.10;;;;;;5015064;28;20521;-84
2021/10/10 07:12:46;;;;;;;42.03;15.32;;;5.90;79.70;;;;;;5015176;28;20037;-82
2021/10/10 07:15:13;;;;;;;27.02;14.65;;;6.00;79.50;;;;;;5015003;28;20030;-83
2021/10/10 07:17:39;;;;;;;27.50;14.57;;;5.80;79.40;;;;;;5014554;28;20514;-83
2021/10/10 07:22:32;;;;;;;25.30;14.20;;;6.00;79.10;;;;;;5014716;28;20029;-81
2021/10/10 07:25:04;;;;;;;28.55;14.02;;;6.10;79.40;;;;;;5014717;28;20065;-82
2021/10/10 07:27:34;;;;;;;21.67;13.00;;;6.20;79.70;;;;;;5015041;28;20021;-84
2021/10/10 07:29:59;;;;;;;24.23;14.93;;;6.10;79.10;;;;;;5014909;28;20033;-81
2021/10/10 07:32:25;;;;;;;24.98;14.93;;;6.10;78.70;;;;;;5014885;28;20022;-86
2021/10/10 07:34:51;;;;;;;18.95;12.80;;;6.20;79.10;;;;;;5014700;28;20029;-77
2021/10/10 07:37:16;;;;;;;21.30;13.50;;;6.20;79.10;;;;;;5014718;28;20057;-77
2021/10/10 07:39:42;;;;;;;18.65;11.98;;;6.30;78.70;;;;;;5014140;28;20080;-76
2021/10/10 07:42:07;;;;;;;18.60;12.50;;;6.40;77.90;;;;;;5013976;28;20030;-76
2021/10/10 07:44:34;;;;;;;22.85;15.32;;;6.50;77.90;;;;;;5012919;28;20018;-75
2021/10/10 07:49:55;;;;;;;23.23;14.98;;;6.60;77.60;;;;;;5009298;28;20037;-76
2021/10/10 07:52:24;;;;;;;19.60;13.35;;;6.50;78.60;;;;;;5014069;28;20048;-78
2021/10/10 07:54:49;;;;;;;20.13;13.82;;;6.60;78.40;;;;;;5014070;28;20053;-77
2021/10/10 07:57:15;;;;;;;17.98;11.55;;;6.70;77.90;;;;;;5013505;28;20198;-77
2021/10/10 07:59:40;;;;;;;35.92;16.45;;;6.80;77.90;;;;;;5013877;28;20033;-77
2021/10/10 08:02:06;;;;;;;30.20;17.13;;;7.50;94.30;;;;;;5014135;28;20087;-76
2021/10/10 08:04:32;;;;;;;24.30;14.48;;;7.80;92.10;;;;;;5013955;28;20106;-78
2021/10/10 08:06:57;;;;;;;23.75;15.57;;;8.00;91.80;;;;;;5013974;28;20033;-79
2021/10/10 08:09:23;;;;;;;22.40;14.23;;;8.30;88.40;;;;;;4996172;28;20063;-77
2021/10/10 08:11:49;;;;;;;18.10;12.10;;;8.60;83.70;;;;;;5013972;28;20022;-82
2021/10/10 08:14:14;;;;;;;16.50;11.95;;;8.90;81.40;;;;;;4996161;28;20133;-78
2021/10/10 08:16:42;;;;;;;19.77;12.25;;;9.10;78.70;;;;;;5013485;28;20108;-76
2021/10/10 08:19:07;;;;;;;20.05;13.55;;;9.40;75.40;;;;;;5013668;28;20390;-77
2021/10/10 08:21:34;;;;;;;16.75;11.63;;;9.70;73.60;;;;;;5013675;28;20033;-77
2021/10/10 08:24:01;;;;;;;15.98;11.02;;;9.90;71.60;;;;;;5013705;28;20072;-78
2021/10/10 08:26:30;;;;;;;18.05;12.05;;;10.30;71.10;;;;;;5013411;28;20491;-78
2021/10/10 08:28:56;;;;;;;16.13;10.80;;;10.60;69.40;;;;;;5013503;28;20448;-77
2021/10/10 08:31:26;;;;;;;16.92;12.40;;;10.80;68.00;;;;;;5013330;28;20414;-77
2021/10/10 08:33:52;;;;;;;17.35;11.85;;;10.70;64.30;;;;;;5013415;28;20021;-77
2021/10/10 08:36:17;;;;;;;20.52;11.77;;;10.20;65.20;;;;;;5013284;28;20026;-77
2021/10/10 08:38:44;;;;;;;17.92;11.85;;;9.70;66.60;;;;;;5013329;28;20038;-76
2021/10/10 08:41:14;;;;;;;24.77;15.05;;;9.20;68.30;;;;;;5013347;28;20029;-79
2021/10/10 08:43:43;;;;;;;19.33;13.85;;;9.10;70.20;;;;;;5013247;28;20026;-78
2021/10/10 08:46:09;;;;;;;22.58;14.30;;;8.90;71.40;;;;;;5013205;28;20072;-76
2021/10/10 08:48:35;;;;;;;19.58;13.68;;;8.90;73.00;;;;;;5012968;28;20026;-76
2021/10/10 08:51:00;;;;;;;21.95;14.57;;;9.00;72.20;;;;;;5013096;28;20113;-77
2021/10/10 08:53:26;;;;;;;20.02;13.38;;;8.80;73.80;;;;;;5012859;28;20026;-76
2021/10/10 08:55:53;;;;;;;19.48;13.68;;;8.60;73.80;;;;;;5013171;28;20389;-76
2021/10/10 08:58:23;;;;;;;20.08;13.68;;;8.80;74.00;;;;;;5013062;28;20022;-76
2021/10/10 09:00:52;;;;;;;23.45;12.90;;;9.00;73.30;;;;;;5013047;28;20474;-76
2021/10/10 09:03:19;;;;;;;22.92;12.77;;;9.20;73.20;;;;;;5012866;28;20025;-76
2021/10/10 09:05:45;;;;;;;16.73;11.75;;;9.30;74.40;;;;;;5012928;28;20044;-76
2021/10/10 09:08:12;;;;;;;16.65;11.73;;;9.20;73.50;;;;;;4995317;28;20026;-76
2021/10/10 09:10:38;;;;;;;21.27;12.68;;;9.40;73.70;;;;;;5012751;28;20482;-77
2021/10/10 09:13:06;;;;;;;20.35;13.13;;;9.40;72.00;;;;;;5012767;28;20026;-75
2021/10/10 09:15:33;;;;;;;20.27;12.57;;;9.40;72.70;;;;;;5012552;28;20026;-76
2021/10/10 09:18:01;;;;;;;22.92;14.65;;;9.20;72.90;;;;;;5012442;28;20387;-76
2021/10/10 09:20:35;;;;;;;22.75;13.80;;;9.30;73.10;;;;;;5012801;28;20018;-76
2021/10/10 09:23:04;;;;;;;21.83;13.32;;;9.10;74.10;;;;;;5012795;28;20037;-75
2021/10/10 09:25:31;;;;;;;22.55;13.43;;;9.40;73.80;;;;;;5012505;28;20471;-74
2021/10/10 09:28:03;;;;;;;21.38;12.65;;;9.90;72.30;;;;;;5012609;28;20057;-75
2021/10/10 09:30:45;;;;;;;22.98;13.82;;;10.10;70.90;;;;;;5012822;28;20026;-76
2021/10/10 09:33:11;;;;;;;23.63;13.57;;;10.20;69.10;;;;;;4995047;28;20026;-75
2021/10/10 09:35:37;;;;;;;18.88;13.75;;;10.30;69.30;;;;;;5012573;28;20041;-75
2021/10/10 09:38:19;;;;;;;21.73;13.13;;;10.50;69.50;;;;;;5012673;28;20033;-76
2021/10/10 09:40:51;;;;;;;22.98;13.23;;;10.90;67.80;;;;;;5012824;28;20390;-76
2021/10/10 09:43:16;;;;;;;21.60;12.93;;;11.00;67.10;;;;;;5015898;28;20034;-76
2021/10/10 09:45:53;;;;;;;22.48;12.80;;;11.40;66.30;;;;;;5016373;28;20491;-76
2021/10/10 09:48:34;;;;;;;23.02;12.82;;;11.90;64.60;;;;;;5016205;28;20331;-77
2021/10/10 09:51:00;;;;;;;17.92;11.57;;;12.40;62.80;;;;;;5016424;28;20069;-76
2021/10/10 09:53:31;;;;;;;14.93;10.40;;;12.80;61.40;;;;;;5016549;28;20109;-76
2021/10/10 09:55:59;;;;;;;24.70;12.63;;;13.20;57.70;;;;;;5016351;28;20026;-76
2021/10/10 09:58:39;;;;;;;24.08;11.68;;;12.90;58.90;;;;;;5016279;28;20022;-76
2021/10/10 10:01:19;;;;;;;18.45;10.50;;;12.80;58.80;;;;;;5016314;28;20026;-76
2021/10/10 10:04:05;;;;;;;26.90;12.35;;;13.10;58.40;;;;;;5016163;28;20451;-76
2021/10/10 10:06:39;;;;;;;19.05;12.05;;;13.50;56.60;;;;;;5016006;28;20038;-76
2021/10/10 10:09:11;;;;;;;21.38;12.10;;;13.90;55.00;;;;;;5016061;28;20026;-76
2021/10/10 10:11:39;;;;;;;19.00;10.75;;;14.30;53.70;;;;;;5015929;28;20026;-77
2021/10/10 10:14:08;;;;;;;20.67;10.98;;;14.50;52.10;;;;;;5016485;28;20161;-76
2021/10/10 10:16:39;;;;;;;21.55;12.13;;;14.90;51.70;;;;;;5015931;28;20044;-76
2021/10/10 10:19:08;;;;;;;20.13;11.80;;;14.90;50.00;;;;;;5016046;28;20522;-76
2021/10/10 10:21:37;;;;;;;16.67;11.23;;;14.60;51.20;;;;;;5015899;28;20045;-76
2021/10/10 10:24:03;;;;;;;18.88;11.48;;;14.40;51.70;;;;;;5015925;28;20025;-76
2021/10/10 10:26:32;;;;;;;22.17;12.65;;;14.40;52.30;;;;;;5015753;28;20037;-77
2021/10/10 10:29:00;;;;;;;20.42;11.88;;;14.50;51.30;;;;;;5015935;28;20117;-76
2021/10/10 10:31:27;;;;;;;23.95;11.85;;;14.50;51.70;;;;;;4998188;28;20482;-76
2021/10/10 10:33:54;;;;;;;17.45;10.77;;;14.70;51.00;;;;;;5015690;28;20029;-75
2021/10/10 10:36:58;;;;;;;18.27;10.73;;;15.00;49.90;;;;;;4998087;28;20026;-76
2021/10/10 10:39:50;;;;;;;13.02;9.05;;;15.00;49.00;;;;;;5015592;28;20033;-76
2021/10/10 10:42:25;;;;;;;20.52;10.90;;;15.40;50.10;;;;;;5015685;28;20028;-76
2021/10/10 10:44:52;;;;;;;18.88;11.18;;;15.90;47.20;;;;;;5015544;28;20024;-77
2021/10/10 10:47:20;;;;;;;23.90;11.13;;;16.10;45.80;;;;;;5015667;28;20098;-77
2021/10/10 10:49:59;;;;;;;22.05;10.25;;;15.80;45.70;;;;;;5015527;28;20502;-76
2021/10/10 10:52:32;;;;;;;18.30;11.45;;;15.70;47.20;;;;;;5015314;28;20032;-76
2021/10/10 10:55:16;;;;;;;19.70;10.05;;;16.10;46.00;;;;;;5014449;28;20018;-75
2021/10/10 10:57:58;;;;;;;18.55;9.85;;;16.30;45.30;;;;;;5015363;28;20038;-76
2021/10/10 11:00:27;;;;;;;17.65;10.95;;;16.20;45.40;;;;;;5015130;28;20022;-76
2021/10/10 11:02:57;;;;;;;21.77;10.52;;;15.70;46.30;;;;;;5015137;28;20022;-77
2021/10/10 11:05:50;;;;;;;18.27;10.32;;;15.50;47.20;;;;;;5015013;28;20040;-77
2021/10/10 11:08:27;;;;;;;15.38;9.48;;;16.10;46.40;;;;;;5015072;28;20186;-77
2021/10/10 11:11:14;;;;;;;12.95;9.35;;;16.60;43.30;;;;;;5014862;28;20018;-77
2021/10/10 11:13:44;;;;;;;22.73;10.35;;;17.10;42.10;;;;;;5014623;28;20026;-78
2021/10/10 11:16:14;;;;;;;17.63;10.18;;;16.90;43.60;;;;;;5014411;28;20045;-76
2021/10/10 11:18:44;;;;;;;16.92;10.25;;;17.20;43.50;;;;;;5014657;28;20054;-76
2021/10/10 11:21:12;;;;;;;18.98;10.23;;;17.20;42.40;;;;;;4997231;28;20026;-76
2021/10/10 11:23:38;;;;;;;15.23;9.50;;;17.30;43.20;;;;;;5014745;28;20141;-76
2021/10/10 11:26:09;;;;;;;20.17;10.40;;;17.40;43.50;;;;;;5014595;28;20410;-76
2021/10/10 11:28:45;;;;;;;16.13;9.93;;;17.50;42.20;;;;;;5014663;28;20105;-75
2021/10/10 11:31:14;;;;;;;18.98;10.38;;;17.40;43.10;;;;;;4996798;28;20022;-76
2021/10/10 11:33:55;;;;;;;15.05;9.52;;;17.90;42.40;;;;;;5014438;28;20107;-76
2021/10/10 11:36:30;;;;;;;12.82;9.13;;;18.10;42.20;;;;;;5014555;28;20056;-73
2021/10/10 11:38:56;;;;;;;18.83;9.32;;;18.50;41.50;;;;;;5014341;28;20026;-75
2021/10/10 11:41:24;;;;;;;17.40;9.52;;;18.70;39.40;;;;;;5012912;28;20179;-75
2021/10/10 11:44:05;;;;;;;17.33;9.68;;;19.10;39.60;;;;;;4996465;28;20494;-74
2021/10/10 11:46:47;;;;;;;20.85;10.18;;;19.40;38.40;;;;;;5013905;28;20038;-75
2021/10/10 11:49:42;;;;;;;16.92;8.75;;;19.50;37.80;;;;;;5013974;28;20356;-75
2021/10/10 11:52:17;;;;;;;16.63;9.90;;;19.80;37.20;;;;;;5014046;28;20018;-75
2021/10/10 11:54:44;;;;;;;16.77;8.57;;;20.20;37.90;;;;;;5014037;28;20022;-75
2021/10/10 11:57:12;;;;;;;16.45;8.77;;;20.50;36.60;;;;;;5013953;28;20084;-74
2021/10/10 11:59:50;;;;;;;20.70;9.45;;;20.90;35.60;;;;;;5013962;28;20026;-75
2021/10/10 12:02:16;;;;;;;19.13;9.27;;;21.00;34.10;;;;;;5013766;28;20564;-74
2021/10/10 12:04:42;;;;;;;17.45;9.07;;;21.00;34.30;;;;;;5013591;28;20026;-74
2021/10/10 12:07:07;;;;;;;15.90;9.68;;;21.00;34.80;;;;;;5014004;28;20030;-74
2021/10/10 12:09:33;;;;;;;13.07;9.85;;;20.60;34.00;;;;;;5014091;28;20030;-75
2021/10/10 12:12:04;;;;;;;14.15;8.70;;;20.50;34.50;;;;;;5014002;28;20026;-75
2021/10/10 12:14:47;;;;;;;13.65;8.88;;;20.60;35.60;;;;;;5014073;28;20033;-75
2021/10/10 12:17:53;;;;;;;15.30;8.90;;;20.70;34.50;;;;;;5014362;28;20052;-75
2021/10/10 12:20:21;;;;;;;21.03;9.83;;;20.70;35.00;;;;;;4977056;28;20411;-75
2021/10/10 12:23:01;;;;;;;14.95;8.43;;;20.80;34.20;;;;;;5021618;28;20472;-75
2021/10/10 12:25:38;;;;;;;16.92;8.57;;;21.10;34.30;;;;;;5025056;28;20509;-75
2021/10/10 12:28:15;;;;;;;15.23;9.18;;;21.20;32.90;;;;;;5020967;28;20064;-75
2021/10/10 12:30:59;;;;;;;14.25;8.85;;;21.30;32.20;;;;;;5016578;28;20018;-75
2021/10/10 12:33:30;;;;;;;14.55;8.80;;;21.20;31.90;;;;;;5014626;28;20025;-75
2021/10/10 12:36:10;;;;;;;15.10;8.05;;;21.00;32.40;;;;;;5014417;28;20521;-75
2021/10/10 12:38:43;;;;;;;14.43;7.70;;;21.20;33.60;;;;;;4997491;28;20030;-74
2021/10/10 12:41:20;;;;;;;14.80;8.20;;;21.40;32.90;;;;;;5015542;28;20029;-76
2021/10/10 12:43:58;;;;;;;16.50;8.48;;;21.60;32.60;;;;;;5014166;28;20025;-76
2021/10/10 12:46:25;;;;;;;13.27;7.70;;;21.80;32.00;;;;;;5013141;28;20037;-75
2021/10/10 12:49:05;;;;;;;17.90;8.55;;;22.10;31.30;;;;;;5013214;28;20501;-75
2021/10/10 12:51:35;;;;;;;12.25;7.05;;;22.30;30.80;;;;;;5013299;28;20040;-75